Time;durP1;ratioP1;P1;durP2;ratioP2;P2;SDS_P1;SDS_P2;PMS_P1;PMS_P2;Temp;Humidity;BMP_temperature;BMP_pressure;BME280_temperature;BME280_humidity;BME280_pressure;Samples;Min_cycle;Max_cycle;Signal;HPM_P1;HPM_P2
2022/02/26 00:00:06;;;;;;;36.28;16.30;;;;;;;1.46;75.65;148036.88;1814588;78;20903;-62
2022/02/26 00:02:35;;;;;;;35.92;16.95;;;;;;;1.43;75.90;148030.42;1815162;79;20970;-62
2022/02/26 00:05:02;;;;;;;37.17;17.07;;;;;;;1.42;76.26;148027.84;1814570;79;21033;-63
2022/02/26 00:07:29;;;;;;;30.55;16.25;;;;;;;1.40;76.53;148021.44;1814729;79;20969;-62
2022/02/26 00:09:56;;;;;;;39.95;17.05;;;;;;;1.40;76.83;148022.69;1803499;78;21138;-63
2022/02/26 00:12:24;;;;;;;36.35;17.10;;;;;;;1.39;76.96;148018.86;1809533;79;20956;-61
2022/02/26 00:14:51;;;;;;;34.90;16.32;;;;;;;1.36;77.25;148011.14;1815231;78;21004;-61
2022/02/26 00:17:18;;;;;;;34.15;15.25;;;;;;;1.33;77.57;148004.67;1814998;78;21001;-62
2022/02/26 00:19:46;;;;;;;31.17;15.08;;;;;;;1.32;77.93;148002.09;1815388;78;20945;-62
2022/02/26 00:22:12;;;;;;;29.95;13.98;;;;;;;1.34;78.15;148005.98;1815310;79;21833;-62
2022/02/26 00:24:39;;;;;;;32.78;14.35;;;;;;;1.35;78.45;148009.81;1802929;79;20976;-62
2022/02/26 00:27:05;;;;;;;38.30;15.32;;;;;;;1.35;78.54;148009.81;1814739;79;21031;-62
2022/02/26 00:29:34;;;;;;;34.15;14.25;;;;;;;1.35;78.66;148009.81;1805795;79;21046;-63
2022/02/26 00:32:02;;;;;;;33.42;14.85;;;;;;;1.37;78.90;148014.97;1782734;80;21660;-62
2022/02/26 00:34:29;;;;;;;34.50;15.20;;;;;;;1.38;78.94;148017.55;1783092;78;21136;-62
2022/02/26 00:36:56;;;;;;;36.10;15.08;;;;;;;1.36;78.92;148012.39;1782665;78;20887;-62
2022/02/26 00:39:23;;;;;;;37.70;16.82;;;;;;;1.36;78.89;148012.39;1802273;78;21035;-62
2022/02/26 00:41:50;;;;;;;33.33;15.83;;;;;;;1.34;78.87;148007.25;1814541;78;21328;-62
2022/02/26 00:44:17;;;;;;;38.70;15.45;;;;;;;1.33;78.83;148003.41;1813968;79;21400;-62
2022/02/26 00:46:46;;;;;;;35.52;16.62;;;;;;;1.31;78.90;147999.53;1815204;79;21418;-62
2022/02/26 00:51:59;;;;;;;37.08;16.52;;;;;;;1.28;79.10;147993.06;1808303;79;21652;-62
2022/02/26 00:54:25;;;;;;;42.20;16.90;;;;;;;1.26;79.01;147987.91;1803563;78;21060;-63
2022/02/26 00:56:52;;;;;;;39.33;17.50;;;;;;;1.21;79.13;147975.05;1803981;79;21473;-62
2022/02/26 00:59:19;;;;;;;40.33;17.42;;;;;;;1.19;79.29;147969.89;1803578;78;21126;-63
2022/02/26 01:01:46;;;;;;;44.67;17.57;;;;;;;1.16;79.51;147960.86;1803369;79;20915;-59
2022/02/26 01:04:13;;;;;;;39.55;17.80;;;;;;;1.10;79.73;147947.98;1802395;79;21062;-59
2022/02/26 01:06:40;;;;;;;50.63;17.65;;;;;;;1.08;79.99;147942.84;1803042;79;21516;-62
2022/02/26 01:09:06;;;;;;;38.58;17.77;;;;;;;1.05;80.24;147935.13;1803376;79;20970;-61
2022/02/26 01:11:33;;;;;;;38.00;17.20;;;;;;;1.06;80.58;147937.69;1786182;79;21458;-62
2022/02/26 01:14:00;;;;;;;41.13;16.90;;;;;;;1.08;80.76;147942.84;1803211;79;21006;-62
2022/02/26 01:16:27;;;;;;;35.38;17.55;;;;;;;1.06;81.01;147937.69;1803367;79;21228;-63
2022/02/26 01:18:54;;;;;;;40.43;16.37;;;;;;;1.07;81.28;147940.27;1803624;79;20982;-63
2022/02/26 01:21:21;;;;;;;34.73;16.25;;;;;;;1.08;81.82;147942.84;1803102;79;21037;-62
2022/02/26 01:23:48;;;;;;;35.50;16.10;;;;;;;1.08;82.37;147942.84;1803463;79;21076;-62
2022/02/26 01:26:22;;;;;;;32.10;16.35;;;;;;;1.09;82.39;147944.11;1802736;79;21006;-62
2022/02/26 01:28:49;;;;;;;39.35;17.55;;;;;;;1.14;82.30;147958.28;1767803;80;21360;-63
2022/02/26 01:31:15;;;;;;;36.40;15.80;;;;;;;1.17;82.08;147963.44;1767174;81;21072;-59
2022/02/26 01:33:42;;;;;;;37.65;16.52;;;;;;;1.19;81.82;147968.59;1776246;80;21501;-58
2022/02/26 01:36:08;;;;;;;33.63;15.60;;;;;;;1.18;81.68;147967.31;1803044;79;21135;-58
2022/02/26 01:38:35;;;;;;;33.33;16.12;;;;;;;1.16;81.67;147960.86;1803719;79;21453;-58
2022/02/26 01:41:03;;;;;;;38.48;16.60;;;;;;;1.13;81.78;147954.45;1803043;79;21111;-63
2022/02/26 01:43:31;;;;;;;36.05;16.30;;;;;;;1.11;81.74;147950.56;1803287;79;21024;-62
2022/02/26 01:45:58;;;;;;;44.00;18.23;;;;;;;1.10;81.62;147947.98;1803135;79;22016;-63
2022/02/26 01:48:25;;;;;;;41.53;17.77;;;;;;;1.04;81.56;147932.55;1803095;79;21526;-62
2022/02/26 01:50:52;;;;;;;36.90;16.77;;;;;;;1.00;81.60;147923.52;1803236;79;21506;-62
2022/02/26 01:53:19;;;;;;;38.42;16.42;;;;;;;0.97;81.65;147914.48;1802736;78;21023;-62
2022/02/26 01:55:46;;;;;;;41.00;17.60;;;;;;;0.94;81.67;147908.06;1744165;79;21395;-62
2022/02/26 01:58:13;;;;;;;47.65;17.95;;;;;;;0.91;81.70;147899.03;1802622;79;21047;-63
2022/02/26 02:00:40;;;;;;;39.08;17.25;;;;;;;0.85;81.76;147886.17;1803319;79;21090;-63
2022/02/26 02:03:06;;;;;;;37.10;16.48;;;;;;;0.80;81.77;147873.31;1802205;79;21070;-64
2022/02/26 02:05:33;;;;;;;35.23;15.68;;;;;;;0.75;81.95;147860.39;1778283;79;20974;-62
2022/02/26 02:08:00;;;;;;;40.85;16.45;;;;;;;0.71;82.17;147850.09;1802574;79;21084;-62
2022/02/26 02:10:27;;;;;;;35.33;15.30;;;;;;;0.67;82.39;147839.81;1783418;79;21063;-62
2022/02/26 02:12:54;;;;;;;34.78;15.55;;;;;;;0.65;82.73;147835.92;1762354;80;21128;-62
2022/02/26 02:15:33;;;;;;;30.55;14.90;;;;;;;0.62;83.01;147826.94;1784727;79;21048;-62
2022/02/26 02:18:01;;;;;;;29.72;13.95;;;;;;;0.62;83.19;147826.94;1801255;79;21314;-63
2022/02/26 02:20:27;;;;;;;33.30;13.18;;;;;;;0.62;83.24;147828.20;1801044;79;21119;-62
2022/02/26 02:22:54;;;;;;;28.83;14.03;;;;;;;0.61;83.21;147824.37;1787521;78;21073;-63
2022/02/26 02:25:26;;;;;;;30.48;13.00;;;;;;;0.59;83.14;147819.22;1768824;79;22232;-62
2022/02/26 02:27:53;;;;;;;32.45;13.35;;;;;;;0.56;83.13;147814.08;1769428;80;20990;-62
2022/02/26 02:30:19;;;;;;;29.02;13.18;;;;;;;0.52;83.32;147803.73;1789563;79;21579;-62
2022/02/26 02:32:46;;;;;;;27.35;13.40;;;;;;;0.48;83.50;147792.19;1802727;79;21049;-61
2022/02/26 02:35:38;;;;;;;28.62;12.65;;;;;;;0.43;83.64;147781.84;1802349;79;21004;-63
2022/02/26 02:38:12;;;;;;;28.32;13.03;;;;;;;0.40;83.69;147772.86;1802603;79;21879;-63
2022/02/26 02:40:40;;;;;;;30.55;12.70;;;;;;;0.35;83.70;147761.27;1802799;79;21020;-64
2022/02/26 02:43:10;;;;;;;21.77;11.78;;;;;;;0.32;83.76;147753.55;1802209;79;21727;-58
2022/02/26 02:45:36;;;;;;;29.55;12.37;;;;;;;0.28;83.78;147744.52;1802375;79;21075;-58
2022/02/26 02:48:04;;;;;;;25.12;12.18;;;;;;;0.23;83.95;147731.66;1802074;79;21087;-63
2022/02/26 02:50:31;;;;;;;31.48;13.98;;;;;;;0.20;84.31;147722.63;1802386;79;21457;-63
2022/02/26 02:52:58;;;;;;;33.50;13.78;;;;;;;0.15;84.31;147711.08;1802326;78;21104;-62
2022/02/26 02:55:24;;;;;;;28.50;13.05;;;;;;;0.11;84.59;147700.75;1802206;79;21533;-62
2022/02/26 02:57:51;;;;;;;28.40;11.73;;;;;;;0.08;84.75;147694.34;1803160;79;21001;-62
2022/02/26 03:00:19;;;;;;;25.15;12.63;;;;;;;0.07;84.96;147690.45;1801991;79;21121;-63
2022/02/26 03:02:46;;;;;;;26.05;12.20;;;;;;;0.07;84.99;147691.77;1802297;79;22309;-63
2022/02/26 03:05:15;;;;;;;24.90;12.63;;;;;;;0.05;85.13;147685.31;1802208;79;21535;-62
2022/02/26 03:07:42;;;;;;;28.23;12.43;;;;;;;0.03;85.20;147680.17;1802542;79;21463;-62
2022/02/26 03:10:09;;;;;;;27.93;12.98;;;;;;;-0.01;85.39;147672.45;1764008;80;21108;-63
2022/02/26 03:12:36;;;;;;;25.82;12.73;;;;;;;-0.04;85.60;147664.73;1800691;79;21025;-63
2022/02/26 03:15:04;;;;;;;27.87;12.33;;;;;;;-0.09;85.93;147651.88;1802597;79;21123;-63
2022/02/26 03:17:31;;;;;;;28.45;13.08;;;;;;;-0.11;85.89;147646.73;1802072;79;21531;-63
2022/02/26 03:19:58;;;;;;;30.92;13.83;;;;;;;-0.14;86.13;147638.97;1802615;79;20922;-62
2022/02/26 03:22:24;;;;;;;26.82;12.50;;;;;;;-0.18;86.24;147628.69;1788400;78;21076;-63
2022/02/26 03:24:51;;;;;;;28.65;13.10;;;;;;;-0.23;86.31;147617.09;1770572;81;21573;-61
2022/02/26 03:27:18;;;;;;;28.98;13.08;;;;;;;-0.25;86.37;147610.69;1769837;81;21159;-62
2022/02/26 03:29:45;;;;;;;25.50;13.38;;;;;;;-0.28;86.38;147602.97;1782662;79;21090;-63
2022/02/26 03:32:12;;;;;;;32.70;13.83;;;;;;;-0.33;86.90;147592.69;1802127;79;21062;-62
2022/02/26 03:34:39;;;;;;;24.32;13.38;;;;;;;-0.37;86.80;147582.36;1802778;79;21511;-62
2022/02/26 03:37:05;;;;;;;28.42;13.93;;;;;;;-0.39;87.33;147575.95;1802513;79;21038;-62
2022/02/26 03:39:33;;;;;;;30.85;13.58;;;;;;;-0.41;87.61;147572.08;1802476;79;22324;-62
2022/02/26 03:42:05;;;;;;;26.02;12.33;;;;;;;-0.41;88.05;147570.81;1802694;79;20903;-62
2022/02/26 03:44:32;;;;;;;27.32;13.20;;;;;;;-0.41;88.61;147570.81;1802680;79;21034;-61
2022/02/26 03:47:00;;;;;;;25.88;12.45;;;;;;;-0.42;88.75;147569.50;1802563;79;21445;-62
2022/02/26 03:49:27;;;;;;;27.45;13.38;;;;;;;-0.41;88.79;147572.08;1802754;79;20957;-62
2022/02/26 03:51:54;;;;;;;24.75;12.93;;;;;;;-0.39;89.10;147577.22;1797175;78;22165;-63
2022/02/26 03:54:21;;;;;;;26.12;12.45;;;;;;;-0.38;89.00;147579.78;1714721;83;21552;-63
2022/02/26 03:56:48;;;;;;;30.95;11.50;;;;;;;-0.38;89.09;147579.78;1714466;83;21105;-63
2022/02/26 03:59:15;;;;;;;26.93;12.70;;;;;;;-0.39;89.21;147575.95;1714103;83;21566;-62
2022/02/26 04:01:42;;;;;;;24.35;11.53;;;;;;;-0.41;88.86;147572.08;1742934;81;21097;-63
2022/02/26 04:04:09;;;;;;;28.85;13.70;;;;;;;-0.45;88.68;147563.06;1744344;82;21545;-62
2022/02/26 04:06:35;;;;;;;23.62;11.08;;;;;;;-0.45;88.74;147563.06;1744829;81;21094;-62
2022/02/26 04:09:03;;;;;;;27.05;12.28;;;;;;;-0.47;88.53;147556.66;1744633;82;21021;-62
2022/02/26 04:11:30;;;;;;;27.02;12.58;;;;;;;-0.48;88.30;147554.08;1748513;81;20990;-63
2022/02/26 04:13:57;;;;;;;29.10;13.03;;;;;;;-0.50;88.02;147548.94;1779237;80;20937;-63
2022/02/26 04:16:24;;;;;;;26.52;12.58;;;;;;;-0.51;87.85;147546.37;1779260;80;21083;-63
2022/02/26 04:18:52;;;;;;;22.48;12.10;;;;;;;-0.54;87.52;147538.66;1779259;80;21692;-63
2022/02/26 04:21:18;;;;;;;27.85;12.90;;;;;;;-0.57;87.29;147532.20;1766908;79;21522;-63
2022/02/26 04:23:45;;;;;;;28.30;12.35;;;;;;;-0.60;87.11;147525.75;1779070;80;20957;-63
2022/02/26 04:26:12;;;;;;;30.37;12.93;;;;;;;-0.62;86.93;147520.61;1779426;80;20996;-63
2022/02/26 04:28:38;;;;;;;25.45;12.00;;;;;;;-0.63;86.62;147516.78;1779317;80;21414;-63
2022/02/26 04:31:06;;;;;;;26.17;12.63;;;;;;;-0.67;86.45;147507.77;1778717;80;21060;-63
2022/02/26 04:33:32;;;;;;;26.48;11.70;;;;;;;-0.68;86.23;147505.19;1778324;79;21055;-63
2022/02/26 04:35:59;;;;;;;28.02;12.13;;;;;;;-0.67;86.05;147507.77;1778683;80;21308;-63
2022/02/26 04:38:29;;;;;;;29.15;12.30;;;;;;;-0.67;85.71;147507.77;1778340;80;21099;-63
2022/02/26 04:40:57;;;;;;;25.60;10.88;;;;;;;-0.69;85.47;147501.31;1778866;80;21807;-63
2022/02/26 04:43:25;;;;;;;27.55;12.60;;;;;;;-0.72;85.36;147494.91;1778836;80;21042;-63
2022/02/26 04:45:52;;;;;;;28.17;11.48;;;;;;;-0.74;85.29;147489.77;1779210;79;20933;-59
2022/02/26 04:48:19;;;;;;;23.20;11.80;;;;;;;-0.74;85.25;147489.77;1779076;80;21927;-61
2022/02/26 04:50:46;;;;;;;27.75;12.18;;;;;;;-0.76;85.14;147485.89;1778780;80;21032;-62
2022/02/26 04:53:12;;;;;;;25.50;12.05;;;;;;;-0.79;85.02;147478.19;1792258;79;21506;-58
2022/02/26 04:55:39;;;;;;;28.02;12.47;;;;;;;-0.81;85.03;147471.73;1766935;81;21116;-58
2022/02/26 04:58:06;;;;;;;22.32;11.63;;;;;;;-0.80;85.01;147474.31;1767397;80;21050;-58
2022/02/26 05:00:33;;;;;;;23.20;11.05;;;;;;;-0.82;85.02;147469.16;1766582;81;22220;-59
2022/02/26 05:03:00;;;;;;;25.50;11.43;;;;;;;-0.84;85.03;147465.34;1753962;81;21077;-63
2022/02/26 05:05:27;;;;;;;27.35;12.30;;;;;;;-0.87;84.98;147458.88;1741079;82;21150;-62
2022/02/26 05:07:54;;;;;;;28.87;12.53;;;;;;;-0.91;84.92;147448.59;1789895;80;21000;-62
2022/02/26 05:10:20;;;;;;;27.42;12.18;;;;;;;-0.97;84.95;147433.19;1778114;80;21035;-63
2022/02/26 05:12:48;;;;;;;32.78;13.32;;;;;;;-1.01;85.27;147424.17;1762553;81;21000;-59
2022/02/26 05:15:15;;;;;;;27.82;11.50;;;;;;;-1.03;85.47;147419.03;1762320;81;21087;-59
2022/02/26 05:17:42;;;;;;;30.35;13.35;;;;;;;-1.02;85.63;147420.28;1762728;81;21095;-63
2022/02/26 05:20:10;;;;;;;27.95;12.23;;;;;;;-1.02;85.78;147420.28;1766558;78;21469;-62
2022/02/26 05:22:37;;;;;;;27.37;12.03;;;;;;;-0.95;85.90;147437.02;1749173;79;21267;-62
2022/02/26 05:25:07;;;;;;;29.65;13.08;;;;;;;-0.85;85.92;147462.77;1791691;79;21020;-63
2022/02/26 05:27:34;;;;;;;25.23;12.20;;;;;;;-0.74;85.84;147489.77;1770256;80;21377;-63
2022/02/26 05:30:01;;;;;;;25.55;12.85;;;;;;;-0.64;85.61;147515.47;1772560;80;21202;-63
2022/02/26 05:32:28;;;;;;;24.05;11.75;;;;;;;-0.51;85.45;147547.62;1774037;80;21038;-63
2022/02/26 05:34:56;;;;;;;24.55;12.40;;;;;;;-0.39;85.20;147577.22;1742654;82;21507;-63
2022/02/26 05:37:22;;;;;;;33.73;13.15;;;;;;;-0.27;84.65;147606.81;1734840;82;21512;-63
2022/02/26 05:39:49;;;;;;;29.63;13.55;;;;;;;-0.15;84.52;147637.72;1742608;82;21065;-63
2022/02/26 05:42:16;;;;;;;28.73;13.35;;;;;;;-0.05;84.08;147662.16;1742023;82;21324;-63
2022/02/26 05:44:43;;;;;;;29.12;13.83;;;;;;;-0.01;83.69;147672.45;1734995;82;21013;-63
2022/02/26 05:47:09;;;;;;;28.90;13.10;;;;;;;-0.01;83.39;147672.45;1742492;82;21072;-63
2022/02/26 05:49:36;;;;;;;29.25;12.85;;;;;;;-0.04;83.26;147664.73;1742426;82;21124;-62
2022/02/26 05:52:04;;;;;;;30.00;12.90;;;;;;;-0.07;83.21;147657.02;1742356;82;21486;-63
2022/02/26 05:54:30;;;;;;;26.35;12.80;;;;;;;-0.05;83.41;147660.86;1742371;81;21560;-63
2022/02/26 05:56:57;;;;;;;32.25;13.13;;;;;;;0.02;83.42;147678.91;1753708;80;20944;-63
2022/02/26 05:59:24;;;;;;;26.10;13.10;;;;;;;0.10;83.60;147699.48;1742543;81;21461;-63
2022/02/26 06:01:50;;;;;;;25.37;13.13;;;;;;;0.23;83.59;147731.66;1763741;80;21000;-62
2022/02/26 06:04:17;;;;;;;29.42;14.07;;;;;;;0.36;83.02;147763.83;1778925;79;21103;-63
2022/02/26 06:06:44;;;;;;;31.75;13.90;;;;;;;0.47;82.78;147790.87;1779387;80;21450;-62
2022/02/26 06:09:11;;;;;;;31.05;13.72;;;;;;;0.54;82.45;147808.88;1779241;79;21028;-62
2022/02/26 06:11:38;;;;;;;31.23;14.83;;;;;;;0.60;82.41;147821.78;1786403;79;21036;-62
2022/02/26 06:14:04;;;;;;;28.20;13.65;;;;;;;0.63;82.39;147830.78;1779176;80;21040;-62
2022/02/26 06:16:33;;;;;;;31.07;14.87;;;;;;;0.68;82.25;147842.38;1779097;79;21419;-63
2022/02/26 06:19:00;;;;;;;29.52;14.43;;;;;;;0.68;82.03;147842.38;1779464;79;21481;-63
2022/02/26 06:21:27;;;;;;;29.42;14.25;;;;;;;0.62;82.08;147826.94;1778829;79;20936;-64
2022/02/26 06:23:54;;;;;;;29.37;15.23;;;;;;;0.58;82.39;147816.64;1779213;79;21482;-63
2022/02/26 06:26:21;;;;;;;30.35;16.17;;;;;;;0.62;82.81;147826.94;1778787;80;21060;-63
2022/02/26 06:28:48;;;;;;;25.05;13.05;;;;;;;0.69;83.01;147844.95;1779512;79;21122;-63
2022/02/26 06:31:16;;;;;;;27.40;14.90;;;;;;;0.78;83.03;147866.84;1747777;82;20976;-62
2022/02/26 06:33:43;;;;;;;29.23;14.15;;;;;;;0.84;82.94;147882.28;1747843;82;21075;-62
2022/02/26 06:36:10;;;;;;;33.10;15.78;;;;;;;0.92;82.83;147901.63;1747713;82;21112;-62
2022/02/26 06:38:37;;;;;;;32.93;15.28;;;;;;;0.97;82.86;147915.80;1748158;81;21044;-63
2022/02/26 06:41:03;;;;;;;34.43;16.73;;;;;;;1.06;82.77;147937.69;1714676;83;21012;-63
2022/02/26 06:43:30;;;;;;;28.17;13.32;;;;;;;1.20;82.85;147971.16;1714262;82;21134;-63
2022/02/26 06:45:57;;;;;;;30.05;13.88;;;;;;;1.33;82.88;148004.67;1714971;82;20941;-63
2022/02/26 06:48:23;;;;;;;27.32;14.00;;;;;;;1.49;82.86;148043.34;1714795;82;21079;-62
2022/02/26 06:50:50;;;;;;;31.75;14.95;;;;;;;1.64;82.69;148080.70;1714811;83;21052;-59
2022/02/26 06:53:17;;;;;;;35.78;16.70;;;;;;;1.77;82.24;148114.23;1721346;82;21031;-60
2022/02/26 06:55:45;;;;;;;27.70;13.55;;;;;;;1.84;82.18;148130.95;1744606;82;21099;-60
2022/02/26 06:58:12;;;;;;;35.85;17.37;;;;;;;1.95;82.23;148158.02;1770792;80;21055;-59
2022/02/26 07:00:38;;;;;;;36.75;17.37;;;;;;;2.06;82.18;148185.09;1770877;80;21091;-65
2022/02/26 07:03:05;;;;;;;32.73;17.30;;;;;;;2.19;81.77;148218.62;1799467;78;21273;-63
2022/02/26 07:05:32;;;;;;;30.37;14.50;;;;;;;2.33;81.75;148252.17;1802615;79;21538;-63
2022/02/26 07:07:59;;;;;;;32.38;15.80;;;;;;;2.50;81.58;148295.97;1803107;79;22207;-62
2022/02/26 07:10:26;;;;;;;34.30;15.68;;;;;;;2.64;81.55;148330.80;1786922;79;21559;-62
2022/02/26 07:12:53;;;;;;;23.02;11.55;;;;;;;2.79;81.56;148368.23;1802716;79;21051;-62
2022/02/26 07:15:20;;;;;;;31.52;15.78;;;;;;;2.89;81.34;148392.75;1802388;79;21008;-61
2022/02/26 07:17:48;;;;;;;32.00;15.20;;;;;;;2.98;81.43;148415.95;1803008;79;21063;-61
2022/02/26 07:20:14;;;;;;;30.30;15.63;;;;;;;3.06;81.49;148435.31;1802425;79;21031;-58
2022/02/26 07:22:42;;;;;;;33.95;16.45;;;;;;;3.09;81.67;148443.05;1802436;79;21453;-63
2022/02/26 07:25:09;;;;;;;34.73;16.95;;;;;;;3.17;81.86;148461.09;1802413;78;21063;-62
2022/02/26 07:27:36;;;;;;;31.05;16.07;;;;;;;3.24;81.55;148480.45;1802534;79;21008;-62
2022/02/26 07:30:07;;;;;;;34.88;17.20;;;;;;;3.35;81.44;148507.56;1802462;79;21372;-63
2022/02/26 07:32:35;;;;;;;30.32;15.80;;;;;;;3.51;81.37;148546.28;1802161;79;21039;-63
2022/02/26 07:35:04;;;;;;;31.15;15.60;;;;;;;3.65;81.13;148582.45;1801845;79;21064;-64
2022/02/26 07:37:31;;;;;;;28.02;14.20;;;;;;;3.84;80.55;148628.88;1801864;79;21377;-63
2022/02/26 07:39:58;;;;;;;28.73;14.15;;;;;;;4.00;79.31;148670.20;1802128;79;21001;-63
2022/02/26 07:42:26;;;;;;;27.58;14.38;;;;;;;4.10;78.11;148693.48;1801712;79;21092;-64
2022/02/26 07:44:53;;;;;;;30.23;14.90;;;;;;;4.20;77.94;148719.28;1801947;79;22186;-62
2022/02/26 07:47:21;;;;;;;29.32;15.10;;;;;;;4.26;78.09;148733.50;1801941;79;21123;-64
2022/02/26 07:49:48;;;;;;;28.25;14.30;;;;;;;4.38;77.73;148763.20;1802466;79;21013;-63
2022/02/26 07:52:16;;;;;;;28.75;15.18;;;;;;;4.46;76.77;148783.84;1801726;79;21088;-59
2022/02/26 07:54:43;;;;;;;32.20;14.73;;;;;;;4.52;76.58;148799.34;1796311;79;21056;-59
2022/02/26 07:57:10;;;;;;;31.40;14.50;;;;;;;4.58;76.68;148814.88;1794593;79;21130;-60
2022/02/26 07:59:38;;;;;;;29.52;15.40;;;;;;;4.79;75.70;148866.56;1794667;79;21052;-64
2022/02/26 08:02:05;;;;;;;28.90;13.10;;;;;;;4.87;75.78;148887.20;1794535;79;21447;-64
2022/02/26 08:04:32;;;;;;;27.93;13.45;;;;;;;4.87;75.78;148887.20;1794508;79;21072;-64
2022/02/26 08:06:59;;;;;;;28.17;13.95;;;;;;;4.96;74.68;148907.86;1794944;79;21522;-63
2022/02/26 08:09:26;;;;;;;25.88;14.15;;;;;;;5.04;74.29;148928.56;1794103;79;21586;-59
2022/02/26 08:11:54;;;;;;;26.30;13.78;;;;;;;5.13;73.97;148951.81;1792366;79;21025;-59
2022/02/26 08:14:21;;;;;;;25.40;14.33;;;;;;;5.22;73.66;148972.52;1795148;79;21000;-59
2022/02/26 08:16:48;;;;;;;23.27;12.53;;;;;;;5.32;73.06;148998.34;1795588;79;21052;-59
2022/02/26 08:19:15;;;;;;;26.42;13.95;;;;;;;5.36;72.49;149007.41;1795222;79;21064;-60
2022/02/26 08:21:42;;;;;;;26.52;14.03;;;;;;;5.48;72.41;149037.14;1795545;79;21491;-60
2022/02/26 08:24:11;;;;;;;24.70;13.28;;;;;;;5.58;72.10;149062.97;1794975;79;21608;-60
2022/02/26 08:26:39;;;;;;;37.30;14.03;;;;;;;5.71;71.73;149096.59;1795258;79;21099;-60
2022/02/26 08:29:06;;;;;;;30.60;14.00;;;;;;;5.84;71.07;149127.61;1793616;79;21431;-59
2022/02/26 08:31:33;;;;;;;27.62;13.72;;;;;;;5.95;70.34;149156.08;1779668;80;21093;-63
2022/02/26 08:34:00;;;;;;;23.67;12.55;;;;;;;6.05;69.86;149179.39;1779367;80;21539;-64
2022/02/26 08:36:28;;;;;;;26.02;12.90;;;;;;;6.18;69.54;149211.72;1779781;80;21029;-63
2022/02/26 08:38:55;;;;;;;23.73;12.33;;;;;;;6.32;68.66;149246.69;1745324;82;21057;-59
2022/02/26 08:41:21;;;;;;;22.32;12.68;;;;;;;6.44;67.90;149277.69;1779871;80;21033;-58
2022/02/26 08:43:48;;;;;;;22.00;12.33;;;;;;;6.52;67.24;149298.44;1745516;82;21077;-60
2022/02/26 08:46:15;;;;;;;24.92;11.45;;;;;;;6.56;66.25;149308.77;1780129;80;21123;-59
2022/02/26 08:48:41;;;;;;;23.27;11.60;;;;;;;6.63;65.79;149324.28;1780113;80;21025;-60
2022/02/26 08:51:08;;;;;;;21.48;10.93;;;;;;;6.64;65.20;149326.88;1745763;82;21510;-62
2022/02/26 08:53:36;;;;;;;23.25;12.15;;;;;;;6.68;65.08;149337.20;1790000;79;21092;-62
2022/02/26 08:56:03;;;;;;;19.87;11.38;;;;;;;6.70;65.17;149343.70;1802584;79;21072;-59
2022/02/26 08:58:32;;;;;;;22.93;12.40;;;;;;;6.75;64.26;149355.36;1803168;79;21742;-59
2022/02/26 09:00:58;;;;;;;25.50;14.45;;;;;;;6.82;63.85;149372.14;1802886;78;20935;-58
2022/02/26 09:03:25;;;;;;;27.52;13.98;;;;;;;6.90;63.63;149391.56;1802490;79;21355;-58
2022/02/26 09:05:53;;;;;;;25.95;12.93;;;;;;;6.98;63.11;149412.30;1802744;79;21046;-59
2022/02/26 09:08:19;;;;;;;20.17;11.08;;;;;;;7.07;63.17;149434.25;1802304;79;22178;-59
2022/02/26 09:10:46;;;;;;;23.12;10.58;;;;;;;7.12;62.39;149448.50;1777813;79;21058;-59
2022/02/26 09:13:13;;;;;;;22.17;10.48;;;;;;;7.11;62.38;149444.64;1761357;80;21250;-59
2022/02/26 09:15:39;;;;;;;18.67;10.95;;;;;;;7.07;61.81;149435.56;1761862;81;21119;-63
2022/02/26 09:18:06;;;;;;;18.77;10.43;;;;;;;7.09;62.54;149440.75;1761698;81;20985;-59
2022/02/26 09:20:33;;;;;;;22.67;10.75;;;;;;;7.17;62.44;149461.44;1761434;81;21011;-59
2022/02/26 09:23:00;;;;;;;25.95;10.53;;;;;;;7.23;62.00;149474.42;1761945;81;21110;-59
2022/02/26 09:25:26;;;;;;;18.35;10.23;;;;;;;7.24;61.40;149478.27;1761369;80;21103;-59
2022/02/26 09:27:53;;;;;;;21.65;11.43;;;;;;;7.20;61.46;149466.66;1762294;81;21473;-58
2022/02/26 09:30:20;;;;;;;18.52;10.55;;;;;;;7.17;61.86;149460.16;1786804;79;21067;-62
2022/02/26 09:32:47;;;;;;;19.52;10.60;;;;;;;7.16;61.55;149458.84;1802544;79;21051;-62
2022/02/26 09:35:13;;;;;;;21.93;10.58;;;;;;;7.22;62.08;149471.83;1801982;79;21806;-59
2022/02/26 09:37:40;;;;;;;18.60;9.98;;;;;;;7.30;61.42;149493.84;1802254;79;21084;-62
2022/02/26 09:40:08;;;;;;;19.98;10.40;;;;;;;7.39;61.23;149515.80;1766395;81;21470;-62
2022/02/26 09:42:36;;;;;;;20.85;10.18;;;;;;;7.50;60.76;149542.98;1766622;81;21008;-59
2022/02/26 09:45:05;;;;;;;33.25;9.60;;;;;;;7.55;60.33;149554.66;1766947;80;21032;-59
2022/02/26 09:47:31;;;;;;;32.55;8.78;;;;;;;7.55;59.47;149554.66;1736691;82;21121;-60
2022/02/26 09:49:58;;;;;;;46.98;10.35;;;;;;;7.58;58.53;149562.42;1766889;81;20973;-60
2022/02/26 09:52:24;;;;;;;17.52;8.35;;;;;;;7.62;58.39;149571.50;1766450;81;21108;-58
2022/02/26 09:54:51;;;;;;;20.10;9.05;;;;;;;7.64;57.94;149576.67;1726151;82;20998;-61
2022/02/26 09:57:21;;;;;;;23.05;8.28;;;;;;;7.60;58.20;149568.91;1762115;81;21027;-59
2022/02/26 09:59:47;;;;;;;15.28;7.08;;;;;;;7.61;57.35;149570.19;1755319;80;21181;-58
2022/02/26 10:02:14;;;;;;;14.60;7.62;;;;;;;7.57;56.41;149559.83;1734882;81;21711;-60
2022/02/26 10:04:55;;;;;;;16.52;8.00;;;;;;;7.55;56.34;149554.66;1721713;83;21623;-59
2022/02/26 10:07:25;;;;;;;15.15;7.78;;;;;;;7.55;56.78;149554.66;1706464;83;20978;-58
2022/02/26 10:09:53;;;;;;;13.35;7.05;;;;;;;7.59;56.89;149565.00;1708249;81;21486;-59
2022/02/26 10:12:26;;;;;;;15.65;8.15;;;;;;;7.65;55.49;149579.27;1733919;82;21140;-59
2022/02/26 10:14:56;;;;;;;14.23;7.40;;;;;;;7.68;55.78;149588.34;1731144;82;21081;-58
2022/02/26 10:17:38;;;;;;;19.02;7.80;;;;;;;7.72;55.14;149598.69;1731690;82;21503;-58
2022/02/26 10:20:14;;;;;;;14.78;7.58;;;;;;;7.79;55.43;149614.22;1730915;82;21050;-61
2022/02/26 10:22:46;;;;;;;12.80;7.08;;;;;;;7.87;55.22;149634.97;1731554;82;21008;-66
2022/02/26 10:25:16;;;;;;;18.87;8.08;;;;;;;7.92;54.58;149647.91;1730541;82;21825;-62
2022/02/26 10:27:45;;;;;;;14.07;7.12;;;;;;;7.95;55.04;149655.67;1731589;82;21062;-63
2022/02/26 10:30:22;;;;;;;15.93;8.30;;;;;;;7.98;54.39;149663.44;1741068;82;21108;-63
2022/02/26 10:33:17;;;;;;;17.60;8.33;;;;;;;7.97;54.26;149660.84;1743922;82;21574;-64
2022/02/26 10:35:51;;;;;;;12.75;6.78;;;;;;;8.01;54.38;149671.20;1749453;81;21111;-62
2022/02/26 10:38:29;;;;;;;18.07;7.20;;;;;;;8.03;52.51;149676.38;1749924;82;21116;-60
2022/02/26 10:41:09;;;;;;;19.57;7.10;;;;;;;8.05;52.90;149678.97;1749644;82;21412;-61
2022/02/26 10:43:41;;;;;;;17.40;7.80;;;;;;;8.08;52.90;149688.05;1749186;82;21088;-63
2022/02/26 10:46:30;;;;;;;15.65;7.30;;;;;;;8.08;52.27;149688.05;1749107;82;21024;-63
2022/02/26 10:49:09;;;;;;;13.40;7.33;;;;;;;8.11;52.52;149694.55;1749941;81;21076;-62
2022/02/26 10:51:39;;;;;;;16.82;7.35;;;;;;;8.12;52.28;149697.13;1749488;82;21145;-59
2022/02/26 10:54:19;;;;;;;16.10;6.92;;;;;;;8.12;51.65;149697.13;1748962;81;21426;-65
2022/02/26 10:56:46;;;;;;;15.95;7.67;;;;;;;8.13;51.41;149699.72;1734657;82;21497;-60
2022/02/26 10:59:32;;;;;;;16.07;8.08;;;;;;;8.14;52.27;149702.31;1742896;82;21530;-60
2022/02/26 11:02:22;;;;;;;14.78;7.35;;;;;;;8.13;52.93;149701.00;1742305;82;21366;-59
2022/02/26 11:04:45;;;;;;;14.43;7.20;;;;;;;8.17;52.64;149710.08;1743018;81;21181;-59
2022/02/26 11:07:13;;;;;;;15.70;6.70;;;;;;;8.24;52.59;149728.19;1743038;82;21083;-59
2022/02/26 11:09:43;;;;;;;15.35;6.08;;;;;;;8.31;52.25;149746.38;1743072;81;21100;-59
2022/02/26 11:12:17;;;;;;;16.87;7.47;;;;;;;8.38;51.86;149761.89;1718812;82;21123;-60
2022/02/26 11:14:46;;;;;;;12.95;6.12;;;;;;;8.42;52.00;149773.56;1711648;83;21072;-59
2022/02/26 11:17:14;;;;;;;16.80;6.83;;;;;;;8.47;51.75;149785.19;1712334;83;21097;-59
2022/02/26 11:19:47;;;;;;;19.60;7.50;;;;;;;8.52;52.28;149798.23;1712120;83;21640;-58
2022/02/26 11:22:14;;;;;;;11.70;6.22;;;;;;;8.55;51.98;149806.00;1712632;83;20996;-60